Terminal Aerodrome Forecast
Issued by NWS

Home | Current Version | Previous Version | Text Only | Print | Product List | Glossary On
Versions: 1 2 3 4 5 6 7 8 9 10 11 12 13 14 15 16 17 18
162
FTUS41 KPHI 191120
TAFPNE
TAF
KPNE 191120Z 1912/2012 26014G30KT P6SM SCT015 BKN050
     FM191300 27014G35KT P6SM SCT020 BKN050
     FM191400 28020G40KT P6SM SCT030
     FM191700 29014G32KT P6SM SKC
     FM192100 29012G22KT P6SM SKC
     FM200800 28010KT P6SM SKC=

USA.gov is the U.S. government's official web portal to all federal, state and local government web resources and services.